Grover Beach, California
Current Conditions -  °F | °C
As of 8:56 AM on Sunday 23 Nov 2014 (Local Time) from KSBP Reporting Station
Broken Clouds Broken Clouds  
Wind Chill: 16°   Ceiling: 20000
Heat Index: 16°   Visibility: 10mi
Dew Point:   Wind: 0mph
Humidity: 48%   Direction: NA
Pressure: 30.24"   Gusts: NA
Location:  35.12°N, 120.62°W
Report Text: KSBP 231656Z 00000KT 10SM BKN200 16/05 A3024 RMK AO2 SLP239 T01610050
Loading
Personal Weather Stations






























Interactive Weather Map New forecast layout! Learn more

10-Day Weather Forecast

Advertisements
Track Severe Weather on mobile